Gulizar Ana — TCOI6 — position and weather

sailwx.info

Track history (hours):
 
Tides and Currents Weather Stations Pressure Air Temp Water Temp Dewpoint Dewpoint Depression Visibility Wind Speed Wind Dir Waves Ship Positions

Gulizar Ana

Last reported at 2018-Apr-16 04:03 UTC. Time now 2018-Apr-24 12:49 UTC.
Position N 45°43' E 030°46'.
Warning: this ship's position is 8 days out of date.

Length 81 m; draft 6 m.

Type: Cargo ship. MMSI: 271000825.

Date/timePositionNaut miles runAvg speedWind from/ knotsBaromVisibWave heightAir tempDewpointWater temp
2018-Apr-16 04:03N 45°43' E 030°46'1 9.4
2018-Apr-16 03:58N 45°44' E 030°46'6 9.2
2018-Apr-16 03:17N 45°50' E 030°49'3 9.4
2018-Apr-16 03:00N 45°53' E 030°49'5 9.3
2018-Apr-16 02:30N 45°57' E 030°50'4 8.9
2018-Apr-16 02:00N 46°02' E 030°52'5 8.9
2018-Apr-16 01:24N 46°07' E 030°52'4 8.9
2018-Apr-16 01:00N 46°10' E 030°53'5 9.0
2018-Apr-16 00:30N 46°15' E 030°54'4 9.0
2018-Apr-16 00:00N 46°19' E 030°55'5 9.0
2018-Apr-15 23:30N 46°24' E 030°56'5 9.0
2018-Apr-15 23:00N 46°28' E 030°55'4 8.4
2018-Apr-15 22:30N 46°32' E 030°56'4 8.6
2018-Apr-15 22:00N 46°34' E 031°02'4 8.0
2018-Apr-15 21:27N 46°35' E 031°08'4 8.9
2018-Apr-15 21:00N 46°35' E 031°14'4 8.6
2018-Apr-15 20:30N 46°35' E 031°20'4 8.5
2018-Apr-15 20:00N 46°35' E 031°26'4 7.8
2018-Apr-15 19:30N 46°35' E 031°32'4 8.9
2018-Apr-15 19:00N 46°36' E 031°38'5 9.0
2018-Apr-15 18:30N 46°36' E 031°45'4 8.5
2018-Apr-15 17:59N 46°35' E 031°51'4 8.6
2018-Apr-15 17:30N 46°34' E 031°57'4 8.6
2018-Apr-15 17:00N 46°32' E 032°03'  
2018-Apr-12 02:13N 46°33' E 032°19'2 9.2
2018-Apr-12 02:00N 46°33' E 032°16'510.3
2018-Apr-12 01:29N 46°32' E 032°08'5 9.8
2018-Apr-12 01:00N 46°32' E 032°02'510.1
2018-Apr-12 00:30N 46°34' E 031°55'510.2
2018-Apr-12 00:00N 46°36' E 031°48'610.2
2018-Apr-11 23:23N 46°36' E 031°38'410.0
2018-Apr-11 22:59N 46°35' E 031°33'4 8.6
2018-Apr-11 22:29N 46°35' E 031°27'510.4
2018-Apr-11 22:00N 46°35' E 031°19'510.7
2018-Apr-11 21:30N 46°35' E 031°12'510.7
2018-Apr-11 21:00N 46°34' E 031°04'4 7.1
2018-Apr-11 20:28N 46°33' E 030°59'2 4.8
2018-Apr-11 20:00N 46°31' E 030°57'3 6.7
2018-Apr-11 19:30N 46°28' E 030°57'510.0
2018-Apr-11 19:00N 46°23' E 030°58'510.0
2018-Apr-11 18:30N 46°20' E 031°04'1 1.7
2018-Apr-11 18:00N 46°19' E 031°05'0 0.0
2018-Apr-11 17:30N 46°19' E 031°05'0 0.0
2018-Apr-11 16:56N 46°19' E 031°05'0 0.0
2018-Apr-11 16:11N 46°19' E 031°05'0 0.0
2018-Apr-11 15:51N 46°19' E 031°05'0 0.0
2018-Apr-11 11:11N 46°19' E 031°05'0 0.0
2018-Apr-11 10:53N 46°19' E 031°05'0 0.0
2018-Apr-11 10:01N 46°19' E 031°05'0 0.0
2018-Apr-11 09:57N 46°19' E 031°05'0 0.0
2018-Apr-11 09:12N 46°19' E 031°05'0 0.0
2018-Apr-11 09:00N 46°19' E 031°05'0 0.0
2018-Apr-11 08:30N 46°19' E 031°05'0 0.0
2018-Apr-11 08:00N 46°19' E 031°05'0 0.0
2018-Apr-11 07:26N 46°19' E 031°05'0 0.0
2018-Apr-11 07:00N 46°19' E 031°05'1 1.9
2018-Apr-11 06:30N 46°18' E 031°06'610.4
2018-Apr-11 05:59N 46°13' E 031°06'510.4
2018-Apr-11 05:30N 46°08' E 031°08'510.4
2018-Apr-11 05:00N 46°03' E 031°06'510.4
2018-Apr-11 04:30N 45°58' E 031°04'510.5
2018-Apr-11 04:00N 45°53' E 031°01'510.4
2018-Apr-11 03:29N 45°48' E 030°58'510.5
2018-Apr-11 03:00N 45°44' E 030°55'1210.6
2018-Apr-11 01:53N 45°33' E 030°48'410.5
2018-Apr-11 01:30N 45°29' E 030°46'610.4
2018-Apr-11 00:55N 45°24' E 030°42'910.4
2018-Apr-11 00:01N 45°15' E 030°38'010.5
2018-Apr-11 00:00N 45°15' E 030°37'710.6
2018-Apr-10 23:23N 45°08' E 030°35'510.7
2018-Apr-10 22:56N 45°04' E 030°33'510.7
2018-Apr-10 22:30N 44°59' E 030°31'610.7
2018-Apr-10 21:55N 44°54' E 030°28'1110.7
2018-Apr-10 20:53N 44°43' E 030°26'23210.0
2018-Apr-09 21:40N 40°59' E 029°00'1 3.6
2018-Apr-09 21:30N 40°58' E 029°00'4 8.1
2018-Apr-09 20:58N 40°55' E 029°04'510.0
2018-Apr-09 20:30N 40°53' E 029°10'1 2.0
2018-Apr-09 19:49N 40°52' E 029°11'0 0.0
2018-Apr-09 19:25N 40°52' E 029°11'0 0.0
2018-Apr-09 18:55N 40°52' E 029°11'0 0.0
2018-Apr-09 18:25N 40°52' E 029°11'0 0.0
2018-Apr-09 17:43N 40°52' E 029°11'0 0.0
2018-Apr-09 17:07N 40°52' E 029°11'0 0.0
2018-Apr-09 16:55N 40°52' E 029°11'0 0.0
2018-Apr-09 16:19N 40°52' E 029°11'0 0.0
2018-Apr-09 15:55N 40°52' E 029°11'0 0.0
2018-Apr-09 15:25N 40°52' E 029°11'0 0.0
2018-Apr-09 14:55N 40°52' E 029°11'0 0.0
2018-Apr-09 14:25N 40°52' E 029°11'0 0.0
2018-Apr-09 13:55N 40°52' E 029°11'0 0.0
2018-Apr-09 13:19N 40°52' E 029°11'0 0.0
2018-Apr-09 13:01N 40°52' E 029°11'0 0.0
2018-Apr-09 12:24N 40°52' E 029°11'0 0.0
2018-Apr-09 12:00N 40°52' E 029°11'0 0.0
2018-Apr-09 11:24N 40°52' E 029°11'0 0.0
2018-Apr-09 11:00N 40°52' E 029°11'0 0.1
2018-Apr-09 10:18N 40°52' E 029°11'0 0.0
2018-Apr-09 10:00N 40°52' E 029°11'0 0.0
2018-Apr-09 09:24N 40°52' E 029°11'0 0.0
2018-Apr-09 09:00N 40°52' E 029°11'0 0.2
2018-Apr-09 08:30N 40°52' E 029°11'0 0.0
2018-Apr-09 08:00N 40°52' E 029°11'0 0.0
2018-Apr-09 07:30N 40°52' E 029°11'0 0.0
2018-Apr-09 06:57N 40°52' E 029°11'0 0.0
2018-Apr-09 06:30N 40°52' E 029°11'0 0.0
2018-Apr-09 05:42N 40°52' E 029°11'0 0.0
2018-Apr-09 05:27N 40°52' E 029°11'0 0.0
2018-Apr-09 05:00N 40°52' E 029°11'0 0.0
2018-Apr-09 04:30N 40°52' E 029°11'0 0.0
2018-Apr-09 04:00N 40°52' E 029°11'0 0.0
2018-Apr-09 03:30N 40°52' E 029°11'0 0.0
2018-Apr-09 02:57N 40°52' E 029°11'0 0.0
2018-Apr-09 02:30N 40°52' E 029°11'0 0.0
2018-Apr-09 02:00N 40°52' E 029°11'0 0.0
2018-Apr-09 01:27N 40°52' E 029°11'0 0.0
2018-Apr-09 01:00N 40°52' E 029°11'0 0.0
2018-Apr-09 00:30N 40°52' E 029°11'0 0.0
2018-Apr-08 23:57N 40°52' E 029°11'  
Track history (hours):
 
Tides and Currents Weather Stations Pressure Air Temp Water Temp Dewpoint Dewpoint Depression Visibility Wind Speed Wind Dir Waves Ship Positions

Gulizar Ana

Last reported at 2018-Apr-16 04:03 UTC. Time now 2018-Apr-24 12:49 UTC.
Position N 45°43' E 030°46'.
Warning: this ship's position is 8 days out of date.

Length 81 m; draft 6 m.

Type: Cargo ship. MMSI: 271000825.

Date/timePositionNaut miles runAvg speedWind from/ knotsBaromVisibWave heightAir tempDewpointWater temp
2018-Apr-16 04:03N 45°43' E 030°46'1 9.4
2018-Apr-16 03:58N 45°44' E 030°46'6 9.2
2018-Apr-16 03:17N 45°50' E 030°49'3 9.4
2018-Apr-16 03:00N 45°53' E 030°49'5 9.3
2018-Apr-16 02:30N 45°57' E 030°50'4 8.9
2018-Apr-16 02:00N 46°02' E 030°52'5 8.9
2018-Apr-16 01:24N 46°07' E 030°52'4 8.9
2018-Apr-16 01:00N 46°10' E 030°53'5 9.0
2018-Apr-16 00:30N 46°15' E 030°54'4 9.0
2018-Apr-16 00:00N 46°19' E 030°55'5 9.0
2018-Apr-15 23:30N 46°24' E 030°56'5 9.0
2018-Apr-15 23:00N 46°28' E 030°55'4 8.4
2018-Apr-15 22:30N 46°32' E 030°56'4 8.6
2018-Apr-15 22:00N 46°34' E 031°02'4 8.0
2018-Apr-15 21:27N 46°35' E 031°08'4 8.9
2018-Apr-15 21:00N 46°35' E 031°14'4 8.6
2018-Apr-15 20:30N 46°35' E 031°20'4 8.5
2018-Apr-15 20:00N 46°35' E 031°26'4 7.8
2018-Apr-15 19:30N 46°35' E 031°32'4 8.9
2018-Apr-15 19:00N 46°36' E 031°38'5 9.0
2018-Apr-15 18:30N 46°36' E 031°45'4 8.5
2018-Apr-15 17:59N 46°35' E 031°51'4 8.6
2018-Apr-15 17:30N 46°34' E 031°57'4 8.6
2018-Apr-15 17:00N 46°32' E 032°03'  
2018-Apr-12 02:13N 46°33' E 032°19'2 9.2
2018-Apr-12 02:00N 46°33' E 032°16'510.3
2018-Apr-12 01:29N 46°32' E 032°08'5 9.8
2018-Apr-12 01:00N 46°32' E 032°02'510.1
2018-Apr-12 00:30N 46°34' E 031°55'510.2
2018-Apr-12 00:00N 46°36' E 031°48'610.2
2018-Apr-11 23:23N 46°36' E 031°38'410.0
2018-Apr-11 22:59N 46°35' E 031°33'4 8.6
2018-Apr-11 22:29N 46°35' E 031°27'510.4
2018-Apr-11 22:00N 46°35' E 031°19'510.7
2018-Apr-11 21:30N 46°35' E 031°12'510.7
2018-Apr-11 21:00N 46°34' E 031°04'4 7.1
2018-Apr-11 20:28N 46°33' E 030°59'2 4.8
2018-Apr-11 20:00N 46°31' E 030°57'3 6.7
2018-Apr-11 19:30N 46°28' E 030°57'510.0
2018-Apr-11 19:00N 46°23' E 030°58'510.0
2018-Apr-11 18:30N 46°20' E 031°04'1 1.7
2018-Apr-11 18:00N 46°19' E 031°05'0 0.0
2018-Apr-11 17:30N 46°19' E 031°05'0 0.0
2018-Apr-11 16:56N 46°19' E 031°05'0 0.0
2018-Apr-11 16:11N 46°19' E 031°05'0 0.0
2018-Apr-11 15:51N 46°19' E 031°05'0 0.0
2018-Apr-11 11:11N 46°19' E 031°05'0 0.0
2018-Apr-11 10:53N 46°19' E 031°05'0 0.0
2018-Apr-11 10:01N 46°19' E 031°05'0 0.0
2018-Apr-11 09:57N 46°19' E 031°05'0 0.0
2018-Apr-11 09:12N 46°19' E 031°05'0 0.0
2018-Apr-11 09:00N 46°19' E 031°05'0 0.0
2018-Apr-11 08:30N 46°19' E 031°05'0 0.0
2018-Apr-11 08:00N 46°19' E 031°05'0 0.0
2018-Apr-11 07:26N 46°19' E 031°05'0 0.0
2018-Apr-11 07:00N 46°19' E 031°05'1 1.9
2018-Apr-11 06:30N 46°18' E 031°06'610.4
2018-Apr-11 05:59N 46°13' E 031°06'510.4
2018-Apr-11 05:30N 46°08' E 031°08'510.4
2018-Apr-11 05:00N 46°03' E 031°06'510.4
2018-Apr-11 04:30N 45°58' E 031°04'510.5
2018-Apr-11 04:00N 45°53' E 031°01'510.4
2018-Apr-11 03:29N 45°48' E 030°58'510.5
2018-Apr-11 03:00N 45°44' E 030°55'1210.6
2018-Apr-11 01:53N 45°33' E 030°48'410.5
2018-Apr-11 01:30N 45°29' E 030°46'610.4
2018-Apr-11 00:55N 45°24' E 030°42'910.4
2018-Apr-11 00:01N 45°15' E 030°38'010.5
2018-Apr-11 00:00N 45°15' E 030°37'710.6
2018-Apr-10 23:23N 45°08' E 030°35'510.7
2018-Apr-10 22:56N 45°04' E 030°33'510.7
2018-Apr-10 22:30N 44°59' E 030°31'610.7
2018-Apr-10 21:55N 44°54' E 030°28'1110.7
2018-Apr-10 20:53N 44°43' E 030°26'23210.0
2018-Apr-09 21:40N 40°59' E 029°00'1 3.6
2018-Apr-09 21:30N 40°58' E 029°00'4 8.1
2018-Apr-09 20:58N 40°55' E 029°04'510.0
2018-Apr-09 20:30N 40°53' E 029°10'1 2.0
2018-Apr-09 19:49N 40°52' E 029°11'0 0.0
2018-Apr-09 19:25N 40°52' E 029°11'0 0.0
2018-Apr-09 18:55N 40°52' E 029°11'0 0.0
2018-Apr-09 18:25N 40°52' E 029°11'0 0.0
2018-Apr-09 17:43N 40°52' E 029°11'0 0.0
2018-Apr-09 17:07N 40°52' E 029°11'0 0.0
2018-Apr-09 16:55N 40°52' E 029°11'0 0.0
2018-Apr-09 16:19N 40°52' E 029°11'0 0.0
2018-Apr-09 15:55N 40°52' E 029°11'0 0.0
2018-Apr-09 15:25N 40°52' E 029°11'0 0.0
2018-Apr-09 14:55N 40°52' E 029°11'0 0.0
2018-Apr-09 14:25N 40°52' E 029°11'0 0.0
2018-Apr-09 13:55N 40°52' E 029°11'0 0.0
2018-Apr-09 13:19N 40°52' E 029°11'0 0.0
2018-Apr-09 13:01N 40°52' E 029°11'0 0.0
2018-Apr-09 12:24N 40°52' E 029°11'0 0.0
2018-Apr-09 12:00N 40°52' E 029°11'0 0.0
2018-Apr-09 11:24N 40°52' E 029°11'0 0.0
2018-Apr-09 11:00N 40°52' E 029°11'0 0.1
2018-Apr-09 10:18N 40°52' E 029°11'0 0.0
2018-Apr-09 10:00N 40°52' E 029°11'0 0.0
2018-Apr-09 09:24N 40°52' E 029°11'0 0.0
2018-Apr-09 09:00N 40°52' E 029°11'0 0.2
2018-Apr-09 08:30N 40°52' E 029°11'0 0.0
2018-Apr-09 08:00N 40°52' E 029°11'0 0.0
2018-Apr-09 07:30N 40°52' E 029°11'0 0.0
2018-Apr-09 06:57N 40°52' E 029°11'0 0.0
2018-Apr-09 06:30N 40°52' E 029°11'0 0.0
2018-Apr-09 05:42N 40°52' E 029°11'0 0.0
2018-Apr-09 05:27N 40°52' E 029°11'0 0.0
2018-Apr-09 05:00N 40°52' E 029°11'0 0.0
2018-Apr-09 04:30N 40°52' E 029°11'0 0.0
2018-Apr-09 04:00N 40°52' E 029°11'0 0.0
2018-Apr-09 03:30N 40°52' E 029°11'0 0.0
2018-Apr-09 02:57N 40°52' E 029°11'0 0.0
2018-Apr-09 02:30N 40°52' E 029°11'0 0.0
2018-Apr-09 02:00N 40°52' E 029°11'0 0.0
2018-Apr-09 01:27N 40°52' E 029°11'0 0.0
2018-Apr-09 01:00N 40°52' E 029°11'0 0.0
2018-Apr-09 00:30N 40°52' E 029°11'0 0.0
2018-Apr-08 23:57N 40°52' E 029°11'  

Dump ship's entire track history